Time;durP1;ratioP1;P1;durP2;ratioP2;P2;SDS_P1;SDS_P2;PMS_P1;PMS_P2;Temp;Humidity;BMP_temperature;BMP_pressure;BME280_temperature;BME280_humidity;BME280_pressure;Samples;Min_cycle;Max_cycle;Signal;HPM_P1;HPM_P2
2023/10/30 00:02:07;;;;;;;1.00;1.00;;;10.90;99.90;;;;;;4952953;28;20212;-60
2023/10/30 00:04:34;;;;;;;2.73;1.37;;;11.00;99.90;;;;;;4953725;28;20286;-60
2023/10/30 00:07:01;;;;;;;1.60;1.20;;;11.10;99.90;;;;;;4954349;28;20314;-60
2023/10/30 00:09:28;;;;;;;0.80;0.70;;;11.10;99.90;;;;;;4947828;29;20207;-60
2023/10/30 00:11:55;;;;;;;0.87;0.80;;;11.20;99.90;;;;;;4951238;29;20211;-60
2023/10/30 00:14:23;;;;;;;2.33;1.10;;;11.20;99.90;;;;;;4947549;28;20228;-60
2023/10/30 00:16:50;;;;;;;1.10;1.00;;;11.30;99.90;;;;;;4953324;28;20208;-60
2023/10/30 00:19:17;;;;;;;4.83;0.70;;;11.30;99.90;;;;;;4948755;28;20219;-60
2023/10/30 00:21:44;;;;;;;0.97;0.73;;;11.40;99.90;;;;;;4954836;28;20211;-60
2023/10/30 00:24:11;;;;;;;2.37;0.80;;;11.50;99.90;;;;;;4952506;28;20620;-60
2023/10/30 00:26:39;;;;;;;1.10;1.00;;;11.50;99.90;;;;;;4952705;28;20212;-60
2023/10/30 00:29:06;;;;;;;0.63;0.63;;;11.40;99.90;;;;;;4949612;28;20206;-60
2023/10/30 00:31:36;;;;;;;0.80;0.67;;;11.30;99.90;;;;;;4953782;28;20282;-60
2023/10/30 00:34:04;;;;;;;0.77;0.77;;;11.30;99.90;;;;;;4951452;28;20211;-60
2023/10/30 00:36:31;;;;;;;1.90;0.90;;;11.20;99.90;;;;;;4941960;28;20300;-60
2023/10/30 00:38:58;;;;;;;4.07;0.60;;;11.20;99.90;;;;;;4945082;29;20625;-60
2023/10/30 00:41:25;;;;;;;1.07;0.53;;;11.20;99.90;;;;;;4954699;29;20215;-60
2023/10/30 00:43:52;;;;;;;0.50;0.50;;;11.10;99.90;;;;;;4946373;28;20580;-60
2023/10/30 00:46:23;;;;;;;0.53;0.53;;;11.10;99.90;;;;;;4941640;29;20227;-60
2023/10/30 00:48:52;;;;;;;2.40;0.87;;;11.10;99.90;;;;;;4945200;28;20316;-60
2023/10/30 00:51:18;;;;;;;5.13;0.67;;;11.00;99.90;;;;;;4938698;29;20211;-60
2023/10/30 00:53:45;;;;;;;2.97;0.60;;;11.00;99.90;;;;;;4953355;28;20263;-60
2023/10/30 00:56:12;;;;;;;0.60;0.60;;;11.00;99.90;;;;;;4952918;29;20279;-60
2023/10/30 00:58:40;;;;;;;0.57;0.43;;;11.00;99.90;;;;;;4952552;28;20208;-60
2023/10/30 01:01:09;;;;;;;0.60;0.60;;;11.00;99.90;;;;;;4944629;28;20284;-60
2023/10/30 01:03:37;;;;;;;1.10;0.40;;;11.00;99.90;;;;;;4950448;28;20238;-60
2023/10/30 01:06:06;;;;;;;0.60;0.50;;;11.00;99.90;;;;;;4945303;29;20230;-60
2023/10/30 01:08:33;;;;;;;0.83;0.67;;;11.00;99.90;;;;;;4953334;28;20227;-60
2023/10/30 01:11:00;;;;;;;0.40;0.40;;;11.00;99.90;;;;;;4954224;28;20204;-60
2023/10/30 01:13:27;;;;;;;0.40;0.40;;;10.90;99.90;;;;;;4952059;28;20219;-60
2023/10/30 01:15:54;;;;;;;1.03;0.30;;;11.00;99.90;;;;;;4952228;28;20368;-60
2023/10/30 01:18:21;;;;;;;2.43;0.70;;;11.10;99.90;;;;;;4947804;28;20208;-61
2023/10/30 01:20:48;;;;;;;3.63;0.40;;;11.10;99.90;;;;;;4953379;28;20211;-60
2023/10/30 01:23:17;;;;;;;1.20;0.30;;;11.30;99.90;;;;;;4944198;28;20246;-62
2023/10/30 01:25:44;;;;;;;1.03;0.40;;;11.20;99.90;;;;;;4951766;28;20662;-61
2023/10/30 01:28:11;;;;;;;0.53;0.43;;;11.30;99.90;;;;;;4952065;28;20223;-60
2023/10/30 01:30:38;;;;;;;0.57;0.50;;;11.30;99.90;;;;;;4946438;28;20263;-60
2023/10/30 01:33:05;;;;;;;2.00;0.93;;;11.20;99.90;;;;;;4952022;28;20209;-60
2023/10/30 01:35:32;;;;;;;2.20;0.73;;;11.20;99.90;;;;;;4952727;29;20315;-61
2023/10/30 01:37:58;;;;;;;0.77;0.77;;;11.30;99.90;;;;;;4952101;28;20255;-60
2023/10/30 01:40:27;;;;;;;1.90;1.23;;;11.30;99.90;;;;;;4946812;29;20692;-65
2023/10/30 01:42:54;;;;;;;1.70;1.50;;;11.30;99.90;;;;;;4948283;28;20208;-60
2023/10/30 01:45:21;;;;;;;2.57;1.27;;;11.40;99.90;;;;;;4945108;28;20644;-61
2023/10/30 01:47:48;;;;;;;2.87;1.33;;;11.40;99.90;;;;;;4947498;28;20711;-62
2023/10/30 01:50:16;;;;;;;1.30;1.20;;;11.40;99.90;;;;;;4943809;28;20619;-61
2023/10/30 01:52:44;;;;;;;3.90;1.00;;;11.40;99.90;;;;;;4948208;28;20206;-61
2023/10/30 01:55:11;;;;;;;0.90;0.90;;;11.40;99.90;;;;;;4950449;29;20228;-60
2023/10/30 01:57:40;;;;;;;0.97;0.97;;;11.40;99.90;;;;;;4951540;28;20208;-61
2023/10/30 02:00:09;;;;;;;1.17;1.00;;;11.50;99.90;;;;;;4953749;28;20199;-60
2023/10/30 02:02:39;;;;;;;1.50;1.07;;;11.40;99.90;;;;;;4952807;28;20211;-60
2023/10/30 02:05:08;;;;;;;1.63;1.40;;;11.30;99.90;;;;;;4947492;28;20643;-60
2023/10/30 02:07:36;;;;;;;1.20;1.20;;;11.20;99.90;;;;;;4936683;29;20225;-60
2023/10/30 02:10:04;;;;;;;1.77;1.23;;;11.20;99.90;;;;;;4951041;29;20212;-60
2023/10/30 02:12:31;;;;;;;1.47;1.37;;;11.30;99.90;;;;;;4952563;28;20215;-61
2023/10/30 02:14:59;;;;;;;1.53;1.43;;;11.40;99.90;;;;;;4951446;29;20231;-61
2023/10/30 02:17:26;;;;;;;1.23;1.23;;;11.40;99.90;;;;;;4948097;28;20196;-60
2023/10/30 02:19:53;;;;;;;0.90;0.83;;;11.30;99.90;;;;;;4951356;29;20208;-60
2023/10/30 02:22:20;;;;;;;2.00;1.60;;;11.40;99.90;;;;;;4953949;28;20267;-60
2023/10/30 02:24:47;;;;;;;3.27;1.30;;;11.40;99.90;;;;;;4966108;28;20231;-62
2023/10/30 02:27:15;;;;;;;0.80;0.80;;;11.30;99.90;;;;;;4965910;28;20216;-61
2023/10/30 02:29:42;;;;;;;3.33;1.53;;;11.30;99.90;;;;;;4963898;29;20211;-61
2023/10/30 02:32:09;;;;;;;0.80;0.80;;;11.20;99.90;;;;;;4960852;28;20584;-60
2023/10/30 02:34:36;;;;;;;1.80;1.20;;;11.20;99.90;;;;;;4961951;29;20228;-61
2023/10/30 02:37:03;;;;;;;0.90;0.90;;;11.10;99.90;;;;;;4961976;28;20208;-61
2023/10/30 02:39:32;;;;;;;2.10;1.10;;;11.10;99.90;;;;;;4958354;28;20204;-60
2023/10/30 02:42:01;;;;;;;1.10;1.10;;;11.00;99.90;;;;;;4955669;29;20241;-60
2023/10/30 02:44:29;;;;;;;1.77;1.67;;;11.00;99.90;;;;;;4957661;29;20239;-60
2023/10/30 02:46:56;;;;;;;2.07;1.47;;;11.00;99.90;;;;;;4958383;29;20208;-61
2023/10/30 02:49:24;;;;;;;1.93;1.83;;;11.00;99.90;;;;;;4944636;29;20231;-61
2023/10/30 02:51:51;;;;;;;1.50;1.40;;;11.00;99.90;;;;;;4958479;28;20208;-60
2023/10/30 02:54:18;;;;;;;2.40;2.20;;;11.00;99.90;;;;;;4950880;28;20732;-60
2023/10/30 02:56:45;;;;;;;2.00;1.87;;;11.00;99.90;;;;;;4947647;29;20208;-62
2023/10/30 02:59:12;;;;;;;1.60;1.50;;;11.10;99.90;;;;;;4960143;28;20231;-60
2023/10/30 03:01:41;;;;;;;2.47;1.80;;;11.10;99.90;;;;;;4961263;28;20211;-61
2023/10/30 03:04:09;;;;;;;2.77;1.43;;;11.20;99.90;;;;;;4958233;28;20219;-60
2023/10/30 03:06:36;;;;;;;2.33;1.87;;;11.20;99.90;;;;;;4962400;28;20208;-60
2023/10/30 03:09:03;;;;;;;2.20;1.80;;;11.20;99.90;;;;;;4949058;28;20228;-60
2023/10/30 03:11:30;;;;;;;2.80;2.07;;;11.10;99.90;;;;;;4953451;28;20290;-60
2023/10/30 03:13:57;;;;;;;1.93;1.43;;;11.10;99.90;;;;;;4958670;28;20629;-60
2023/10/30 03:16:24;;;;;;;3.53;3.23;;;11.10;99.90;;;;;;4961169;29;20207;-61
2023/10/30 03:18:52;;;;;;;5.30;3.97;;;11.10;99.90;;;;;;4991832;23;20231;-57
2023/10/30 03:21:23;;;;;;;6.77;4.07;;;11.20;99.90;;;;;;4971006;28;20203;-58
2023/10/30 03:23:50;;;;;;;3.77;3.50;;;11.20;99.90;;;;;;4983820;28;20618;-58
2023/10/30 03:26:17;;;;;;;2.13;2.03;;;11.20;99.90;;;;;;4982257;28;20207;-58
2023/10/30 03:28:44;;;;;;;2.40;2.00;;;11.10;99.90;;;;;;4982462;28;20222;-58
2023/10/30 03:31:11;;;;;;;2.57;1.87;;;11.20;99.90;;;;;;4989764;28;20206;-59
2023/10/30 03:33:37;;;;;;;3.97;1.60;;;11.30;99.90;;;;;;4969552;28;20249;-58
2023/10/30 03:36:06;;;;;;;2.70;1.50;;;11.30;99.90;;;;;;4983269;28;20570;-58
2023/10/30 03:38:33;;;;;;;1.50;1.40;;;11.20;99.90;;;;;;4979303;28;20237;-58
2023/10/30 03:41:00;;;;;;;2.93;2.30;;;11.10;99.90;;;;;;4986404;28;20725;-58
2023/10/30 03:43:27;;;;;;;1.47;1.27;;;11.20;99.90;;;;;;4974357;28;20241;-58
2023/10/30 03:45:54;;;;;;;2.47;2.37;;;11.30;99.90;;;;;;4979791;28;20203;-58
2023/10/30 03:48:21;;;;;;;3.40;1.70;;;11.30;99.90;;;;;;4966124;28;20251;-58
2023/10/30 03:50:50;;;;;;;2.03;1.70;;;11.30;99.90;;;;;;4977782;28;20260;-58
2023/10/30 03:53:19;;;;;;;1.67;1.50;;;11.30;99.90;;;;;;4984670;28;20214;-59
2023/10/30 03:55:46;;;;;;;2.90;1.63;;;11.30;99.90;;;;;;4980686;28;20276;-59
2023/10/30 03:58:13;;;;;;;2.30;2.10;;;11.30;99.90;;;;;;4981200;28;20285;-59
2023/10/30 04:00:41;;;;;;;3.83;2.30;;;11.30;99.90;;;;;;4972324;28;20222;-59
2023/10/30 04:03:08;;;;;;;1.77;1.60;;;11.20;99.90;;;;;;4976938;28;20664;-59
2023/10/30 04:05:35;;;;;;;1.53;1.53;;;11.10;99.90;;;;;;4981228;28;20211;-58
2023/10/30 04:08:02;;;;;;;1.73;1.63;;;11.00;99.90;;;;;;4973710;28;20239;-58
2023/10/30 04:10:30;;;;;;;4.30;1.90;;;11.00;99.90;;;;;;4974744;28;20206;-58
2023/10/30 04:12:57;;;;;;;2.27;2.17;;;10.90;99.90;;;;;;4971271;28;20215;-58
2023/10/30 04:15:24;;;;;;;1.73;1.63;;;10.90;99.90;;;;;;4962835;28;20265;-58
2023/10/30 04:17:52;;;;;;;4.33;1.80;;;10.80;99.90;;;;;;4954974;28;20239;-58
2023/10/30 04:20:18;;;;;;;2.73;2.10;;;10.90;99.90;;;;;;4955221;28;20204;-58
2023/10/30 04:22:49;;;;;;;2.97;2.13;;;10.90;99.90;;;;;;4967676;28;20197;-58
2023/10/30 04:25:16;;;;;;;1.77;1.67;;;10.80;99.90;;;;;;4968730;28;20224;-58
2023/10/30 04:27:45;;;;;;;2.20;2.10;;;10.80;99.90;;;;;;4966759;28;20640;-58
2023/10/30 04:30:13;;;;;;;2.00;1.90;;;10.70;99.90;;;;;;4962477;28;20777;-58
2023/10/30 04:32:40;;;;;;;1.80;1.70;;;10.70;99.90;;;;;;4954652;28;20279;-58
2023/10/30 04:35:07;;;;;;;1.87;1.77;;;10.70;99.90;;;;;;4954222;28;20255;-59
2023/10/30 04:37:34;;;;;;;2.80;2.17;;;10.70;99.90;;;;;;4954467;28;20212;-58
2023/10/30 04:40:01;;;;;;;3.77;1.77;;;10.60;99.90;;;;;;4969294;28;20251;-58
2023/10/30 04:42:30;;;;;;;3.27;1.77;;;10.60;99.90;;;;;;4965149;28;20203;-58
2023/10/30 04:44:59;;;;;;;4.10;2.20;;;10.40;99.90;;;;;;4957090;28;20212;-58
2023/10/30 04:47:26;;;;;;;3.43;2.07;;;10.40;99.90;;;;;;4954235;28;20253;-58
2023/10/30 04:49:53;;;;;;;3.13;2.10;;;10.40;99.90;;;;;;4954405;28;20291;-58
2023/10/30 04:52:20;;;;;;;2.73;2.47;;;10.40;99.90;;;;;;4954278;28;20205;-58
2023/10/30 04:54:47;;;;;;;2.53;2.10;;;10.40;99.90;;;;;;4954205;28;20204;-57
2023/10/30 04:57:14;;;;;;;2.60;2.40;;;10.40;99.90;;;;;;4962041;28;20215;-58
2023/10/30 04:59:41;;;;;;;3.67;2.63;;;10.40;99.90;;;;;;4954126;28;20213;-58
2023/10/30 05:02:09;;;;;;;3.07;2.20;;;10.40;99.90;;;;;;4964609;28;20503;-58
2023/10/30 05:04:36;;;;;;;5.20;2.20;;;10.30;99.90;;;;;;4973028;28;20620;-58
2023/10/30 05:07:03;;;;;;;2.00;1.90;;;10.20;99.90;;;;;;4972320;28;20251;-58
2023/10/30 05:09:30;;;;;;;3.73;2.17;;;10.20;99.90;;;;;;4961096;28;20906;-58
2023/10/30 05:11:58;;;;;;;2.23;2.03;;;10.10;99.90;;;;;;4971272;28;20258;-58
2023/10/30 05:14:26;;;;;;;2.93;2.23;;;10.10;99.90;;;;;;4971516;28;20298;-58
2023/10/30 05:16:53;;;;;;;2.63;2.00;;;10.20;99.90;;;;;;4972949;28;20646;-57
2023/10/30 05:19:22;;;;;;;2.30;2.10;;;10.10;99.90;;;;;;4970196;28;20228;-58
2023/10/30 05:21:49;;;;;;;3.37;3.07;;;10.10;99.90;;;;;;4972912;28;20243;-58
2023/10/30 05:24:16;;;;;;;2.70;1.90;;;10.00;99.90;;;;;;4972274;28;20644;-58
2023/10/30 05:26:43;;;;;;;2.73;2.30;;;10.00;99.90;;;;;;4972698;28;20207;-57
2023/10/30 05:29:09;;;;;;;2.43;2.30;;;10.00;99.90;;;;;;4972618;28;20285;-58
2023/10/30 05:31:36;;;;;;;4.03;2.10;;;10.00;99.90;;;;;;4972738;28;20207;-58
2023/10/30 05:34:04;;;;;;;3.33;2.50;;;9.90;99.90;;;;;;4972236;28;20274;-58
2023/10/30 05:36:33;;;;;;;5.50;2.77;;;10.00;99.90;;;;;;4966962;28;20212;-59
2023/10/30 05:39:00;;;;;;;4.90;2.37;;;9.90;99.90;;;;;;4964861;28;20258;-59
2023/10/30 05:41:28;;;;;;;3.23;1.97;;;9.90;99.90;;;;;;4966843;28;20771;-59
2023/10/30 05:43:55;;;;;;;3.97;2.87;;;10.00;99.90;;;;;;4956254;28;20528;-59
2023/10/30 05:46:25;;;;;;;3.23;2.90;;;10.10;99.90;;;;;;4954969;28;20207;-58
2023/10/30 05:48:52;;;;;;;2.97;2.57;;;10.10;99.90;;;;;;4957540;28;20287;-58
2023/10/30 05:51:22;;;;;;;3.37;3.13;;;10.00;99.90;;;;;;4953245;28;20759;-58
2023/10/30 05:53:51;;;;;;;4.33;3.83;;;10.00;99.90;;;;;;4966499;28;20202;-58
2023/10/30 05:56:18;;;;;;;2.97;2.77;;;10.00;99.90;;;;;;4972502;28;20637;-59
2023/10/30 05:58:45;;;;;;;2.93;2.30;;;9.90;99.90;;;;;;4972414;28;20277;-58
2023/10/30 06:01:12;;;;;;;3.37;3.17;;;9.90;99.90;;;;;;4969067;28;20201;-58
2023/10/30 06:03:39;;;;;;;2.97;2.87;;;9.90;99.90;;;;;;4964817;28;20294;-58
2023/10/30 06:06:06;;;;;;;3.47;2.40;;;9.90;99.90;;;;;;4967195;28;20259;-60
2023/10/30 06:08:33;;;;;;;2.63;2.33;;;10.00;99.90;;;;;;4972363;28;20278;-58
2023/10/30 06:11:02;;;;;;;2.80;2.60;;;9.90;99.90;;;;;;4972431;28;20197;-57
2023/10/30 06:13:29;;;;;;;3.07;2.23;;;9.90;99.90;;;;;;4972122;28;20210;-58
2023/10/30 06:15:56;;;;;;;8.10;6.40;;;9.90;99.90;;;;;;4959839;28;20886;-58
2023/10/30 06:18:23;;;;;;;5.40;4.63;;;10.00;99.90;;;;;;4964247;28;20277;-58
2023/10/30 06:20:50;;;;;;;3.90;3.60;;;10.00;99.90;;;;;;4972111;28;20445;-58
2023/10/30 06:23:17;;;;;;;4.67;4.27;;;10.00;99.90;;;;;;4970320;28;20209;-58
2023/10/30 06:25:44;;;;;;;4.87;4.57;;;10.00;99.90;;;;;;4971676;28;20202;-58
2023/10/30 06:28:15;;;;;;;3.90;3.70;;;10.10;99.90;;;;;;4972017;28;20224;-58
2023/10/30 06:30:42;;;;;;;5.17;4.73;;;10.20;99.90;;;;;;4972060;28;20735;-58
2023/10/30 06:33:09;;;;;;;6.53;3.80;;;10.20;99.90;;;;;;4975666;28;20293;-58
2023/10/30 06:35:36;;;;;;;2.93;2.77;;;10.20;99.90;;;;;;4975920;28;20210;-58
2023/10/30 06:38:03;;;;;;;4.67;2.73;;;10.10;99.90;;;;;;4968937;28;20319;-58
2023/10/30 06:40:30;;;;;;;5.67;3.80;;;10.20;99.90;;;;;;4973026;28;20219;-58
2023/10/30 06:42:57;;;;;;;3.17;2.87;;;10.20;99.90;;;;;;4964080;28;20209;-58
2023/10/30 06:45:26;;;;;;;3.50;3.03;;;10.20;99.90;;;;;;4955272;28;20208;-58
2023/10/30 06:47:53;;;;;;;4.77;4.10;;;10.30;99.90;;;;;;4956156;28;20223;-58
2023/10/30 06:50:19;;;;;;;3.83;3.63;;;10.30;99.90;;;;;;4955912;28;20766;-59
2023/10/30 06:52:46;;;;;;;5.10;4.53;;;10.20;99.90;;;;;;4956530;28;20204;-58
2023/10/30 06:55:13;;;;;;;2.93;2.73;;;10.30;99.90;;;;;;4963798;28;20204;-58
2023/10/30 06:57:41;;;;;;;3.90;3.43;;;10.40;99.90;;;;;;4969821;28;20743;-62
2023/10/30 07:00:09;;;;;;;4.03;3.20;;;10.50;99.90;;;;;;4975432;28;20571;-61
2023/10/30 07:02:37;;;;;;;3.40;3.20;;;10.40;99.90;;;;;;4966449;28;20283;-60
2023/10/30 07:05:04;;;;;;;3.73;3.40;;;10.50;99.90;;;;;;4958300;28;20205;-60
2023/10/30 07:07:31;;;;;;;3.20;2.97;;;10.60;99.90;;;;;;4955809;28;20676;-63
2023/10/30 07:09:58;;;;;;;3.60;3.27;;;10.70;99.90;;;;;;4966818;28;20216;-59
2023/10/30 07:12:25;;;;;;;3.57;3.23;;;10.80;99.90;;;;;;4964700;28;20244;-59
2023/10/30 07:14:52;;;;;;;5.17;4.67;;;10.90;99.90;;;;;;4966048;28;20251;-59
2023/10/30 07:17:19;;;;;;;4.00;3.70;;;11.00;99.90;;;;;;4962690;28;20675;-59
2023/10/30 07:19:48;;;;;;;3.60;3.30;;;11.10;99.90;;;;;;4963274;28;20203;-59
2023/10/30 07:22:15;;;;;;;4.70;2.90;;;11.10;99.90;;;;;;4971814;28;20205;-59
2023/10/30 07:24:42;;;;;;;4.77;3.90;;;11.20;99.90;;;;;;4963548;28;20255;-59
2023/10/30 07:27:09;;;;;;;3.10;2.83;;;11.30;99.90;;;;;;4955790;28;20209;-59
2023/10/30 07:29:36;;;;;;;6.20;4.10;;;11.40;99.90;;;;;;4967107;28;20305;-60
2023/10/30 07:32:03;;;;;;;9.73;3.73;;;11.40;99.90;;;;;;4974949;28;20206;-58
2023/10/30 07:34:30;;;;;;;4.07;3.77;;;11.40;99.90;;;;;;4974639;28;20196;-60
2023/10/30 07:36:58;;;;;;;4.17;3.87;;;11.50;99.90;;;;;;4966280;28;20270;-57
2023/10/30 07:39:25;;;;;;;3.47;3.23;;;11.60;99.90;;;;;;4955636;28;20226;-58
2023/10/30 07:41:52;;;;;;;4.33;3.00;;;11.80;99.90;;;;;;4963997;28;20261;-59
2023/10/30 07:44:19;;;;;;;5.27;4.77;;;12.00;99.90;;;;;;4973376;28;20207;-59
2023/10/30 07:46:46;;;;;;;4.93;4.60;;;12.30;99.90;;;;;;4974665;28;20738;-59
2023/10/30 07:49:13;;;;;;;5.37;4.10;;;12.40;99.90;;;;;;4971965;28;20242;-58
2023/10/30 07:51:40;;;;;;;4.83;3.90;;;12.40;99.90;;;;;;4963397;28;20635;-58
2023/10/30 07:54:08;;;;;;;6.00;5.00;;;12.30;99.90;;;;;;4955064;28;20204;-58
2023/10/30 07:56:35;;;;;;;5.27;4.13;;;12.30;99.90;;;;;;4955314;28;20634;-58
2023/10/30 07:59:02;;;;;;;7.90;5.10;;;12.30;99.90;;;;;;4955073;28;20236;-59
2023/10/30 08:01:29;;;;;;;6.33;4.27;;;12.40;99.90;;;;;;4955154;28;20204;-59
2023/10/30 08:03:56;;;;;;;4.50;4.20;;;12.40;99.90;;;;;;4960229;28;20200;-59
2023/10/30 08:06:25;;;;;;;4.30;3.97;;;12.50;99.90;;;;;;4963106;28;20259;-58
2023/10/30 08:08:53;;;;;;;4.67;4.37;;;12.70;99.90;;;;;;4955076;28;20282;-59
2023/10/30 08:11:24;;;;;;;4.63;4.33;;;12.60;99.90;;;;;;4954734;28;20633;-59
2023/10/30 08:13:51;;;;;;;4.20;3.90;;;12.80;99.90;;;;;;4954925;28;20286;-58
2023/10/30 08:16:22;;;;;;;4.33;4.03;;;13.00;99.90;;;;;;4954701;28;20213;-58
2023/10/30 08:18:49;;;;;;;3.67;3.37;;;13.00;99.90;;;;;;4963513;28;20284;-59
2023/10/30 08:21:16;;;;;;;4.40;4.00;;;13.00;99.90;;;;;;4968787;28;20204;-58
2023/10/30 08:23:42;;;;;;;4.50;4.10;;;13.00;99.90;;;;;;4962411;28;20209;-59
2023/10/30 08:26:10;;;;;;;5.80;4.37;;;13.00;99.90;;;;;;4954575;28;20646;-59
2023/10/30 08:28:38;;;;;;;4.23;3.80;;;13.00;99.90;;;;;;4954393;28;20228;-59
2023/10/30 08:31:05;;;;;;;4.30;4.00;;;12.90;99.90;;;;;;4961668;28;20266;-60
2023/10/30 08:33:32;;;;;;;4.97;4.67;;;12.90;99.90;;;;;;4961962;28;20256;-59
2023/10/30 08:35:59;;;;;;;4.87;4.47;;;13.00;99.90;;;;;;4954447;28;20587;-59
2023/10/30 08:38:26;;;;;;;4.80;4.40;;;13.00;99.90;;;;;;4972209;28;20281;-58
2023/10/30 08:40:53;;;;;;;6.70;4.07;;;13.20;99.90;;;;;;4974343;28;20195;-58
2023/10/30 08:43:20;;;;;;;5.97;5.10;;;13.10;99.90;;;;;;4955736;28;20656;-59
2023/10/30 08:45:48;;;;;;;4.47;4.17;;;13.00;99.90;;;;;;4961276;28;20236;-58
2023/10/30 08:48:15;;;;;;;3.87;3.67;;;13.00;99.90;;;;;;4962231;28;20723;-59
2023/10/30 08:50:42;;;;;;;4.83;4.43;;;13.00;99.90;;;;;;4954185;28;20224;-59
2023/10/30 08:53:09;;;;;;;4.23;3.77;;;13.00;99.90;;;;;;4954269;28;20204;-59
2023/10/30 08:55:36;;;;;;;4.90;4.53;;;13.00;99.90;;;;;;4972494;28;20263;-59
2023/10/30 08:58:03;;;;;;;7.87;4.57;;;13.00;99.90;;;;;;4972019;28;20267;-58
2023/10/30 09:00:30;;;;;;;9.53;4.30;;;13.10;99.90;;;;;;4957025;28;20287;-58
2023/10/30 09:02:58;;;;;;;4.40;4.00;;;13.10;99.90;;;;;;4962153;28;20266;-59
2023/10/30 09:05:25;;;;;;;4.67;4.27;;;13.20;99.90;;;;;;4953354;28;20247;-58
2023/10/30 09:07:52;;;;;;;5.57;4.20;;;13.10;99.90;;;;;;4953977;28;20629;-59
2023/10/30 09:10:20;;;;;;;5.10;4.77;;;13.30;99.90;;;;;;4956759;28;20695;-59
2023/10/30 09:12:47;;;;;;;4.77;4.37;;;13.40;99.90;;;;;;4973342;28;20200;-58
2023/10/30 09:15:16;;;;;;;5.70;5.17;;;13.30;99.90;;;;;;4969918;28;20208;-58
2023/10/30 09:17:43;;;;;;;5.60;5.10;;;13.10;99.90;;;;;;4960788;28;20630;-58
2023/10/30 09:20:12;;;;;;;5.83;4.43;;;13.00;99.90;;;;;;4953832;28;20201;-58
2023/10/30 09:25:07;;;;;;;5.50;5.00;;;12.70;99.90;;;;;;5006624;23;20318;-59
2023/10/30 09:27:34;;;;;;;4.53;4.27;;;12.50;99.90;;;;;;4992709;28;20210;-59
2023/10/30 09:30:03;;;;;;;6.13;5.53;;;12.30;99.90;;;;;;4977162;28;20281;-60
2023/10/30 09:32:30;;;;;;;7.47;5.50;;;12.40;99.90;;;;;;4987913;28;20201;-60
2023/10/30 09:34:59;;;;;;;6.60;6.00;;;12.40;99.90;;;;;;4987371;28;20722;-60
2023/10/30 09:37:27;;;;;;;6.43;5.37;;;12.30;99.90;;;;;;4984709;28;20250;-60
2023/10/30 09:39:54;;;;;;;5.20;4.80;;;12.40;99.90;;;;;;4973052;28;20197;-60
2023/10/30 09:42:22;;;;;;;5.03;4.60;;;12.50;99.90;;;;;;4983035;28;20286;-60
2023/10/30 09:44:49;;;;;;;5.13;4.73;;;12.60;99.90;;;;;;4983748;28;20220;-60
2023/10/30 09:47:18;;;;;;;5.00;4.47;;;12.70;99.90;;;;;;4992145;28;20625;-60
2023/10/30 09:49:47;;;;;;;5.33;4.90;;;12.70;99.90;;;;;;4992407;28;20562;-60
2023/10/30 09:52:15;;;;;;;4.87;4.50;;;12.70;99.90;;;;;;4992179;28;20303;-60
2023/10/30 09:54:45;;;;;;;5.93;5.33;;;12.40;99.90;;;;;;4991865;28;20733;-60
2023/10/30 09:57:14;;;;;;;4.80;4.50;;;12.40;99.90;;;;;;4992248;28;20251;-60
2023/10/30 09:59:43;;;;;;;5.60;5.07;;;12.20;99.90;;;;;;4988974;28;20211;-60
2023/10/30 10:02:10;;;;;;;5.60;5.10;;;12.30;99.90;;;;;;4990698;28;20207;-60
2023/10/30 10:04:38;;;;;;;5.97;5.57;;;12.30;99.90;;;;;;4991132;28;20219;-60
2023/10/30 10:07:06;;;;;;;7.73;5.07;;;12.30;99.90;;;;;;4990727;28;20206;-60
2023/10/30 10:09:33;;;;;;;5.40;5.00;;;12.40;99.90;;;;;;4990917;28;20202;-60
2023/10/30 10:12:01;;;;;;;6.63;6.03;;;12.50;99.90;;;;;;4990049;28;20222;-60
2023/10/30 10:14:31;;;;;;;8.30;5.93;;;12.60;99.90;;;;;;4984563;28;20710;-60
2023/10/30 10:17:00;;;;;;;6.37;5.00;;;12.70;99.90;;;;;;4991954;28;20579;-60
2023/10/30 10:19:29;;;;;;;5.67;5.27;;;12.70;99.90;;;;;;4992212;28;20290;-60
2023/10/30 10:21:57;;;;;;;6.23;4.53;;;12.80;99.90;;;;;;4992009;28;20207;-60
2023/10/30 10:24:29;;;;;;;5.70;5.30;;;12.80;99.90;;;;;;4991360;28;20234;-60
2023/10/30 10:26:58;;;;;;;5.47;5.07;;;12.90;99.90;;;;;;4991972;28;20246;-60
2023/10/30 10:29:26;;;;;;;6.03;4.97;;;12.90;99.90;;;;;;4990635;28;20294;-60
2023/10/30 10:31:53;;;;;;;4.60;4.00;;;12.80;99.90;;;;;;4983693;28;20706;-60
2023/10/30 10:34:20;;;;;;;5.27;4.87;;;12.80;99.90;;;;;;4987861;28;20219;-60
2023/10/30 10:36:48;;;;;;;4.67;4.33;;;12.70;99.90;;;;;;4989032;28;20258;-60
2023/10/30 10:39:15;;;;;;;4.50;4.20;;;12.70;99.90;;;;;;4992011;28;20273;-60
2023/10/30 10:41:43;;;;;;;5.07;4.60;;;12.60;99.90;;;;;;4988826;28;20636;-60
2023/10/30 10:44:12;;;;;;;4.37;4.07;;;12.60;99.90;;;;;;4981753;28;20277;-60
2023/10/30 10:46:40;;;;;;;5.80;5.17;;;12.50;99.90;;;;;;4972507;28;20207;-60
2023/10/30 10:49:08;;;;;;;4.90;4.43;;;12.40;99.90;;;;;;4987784;28;20745;-60
2023/10/30 10:51:37;;;;;;;8.60;4.73;;;12.40;99.90;;;;;;4991794;28;20230;-60
2023/10/30 10:54:18;;;;;;;7.37;5.03;;;12.40;99.90;;;;;;4982977;28;20741;-60
2023/10/30 10:56:48;;;;;;;4.90;4.33;;;12.30;99.90;;;;;;4980295;28;20687;-59
2023/10/30 10:59:18;;;;;;;7.63;6.07;;;12.20;99.90;;;;;;4988805;28;20211;-60
2023/10/30 11:01:50;;;;;;;7.53;5.03;;;12.10;99.90;;;;;;4989571;28;20202;-60
2023/10/30 11:04:17;;;;;;;5.07;3.57;;;12.00;99.90;;;;;;4989525;28;20230;-60
2023/10/30 11:06:51;;;;;;;5.50;4.67;;;12.00;99.90;;;;;;4990059;28;20284;-60
2023/10/30 11:09:24;;;;;;;5.87;3.50;;;12.10;99.90;;;;;;4989361;28;20264;-60
2023/10/30 11:11:58;;;;;;;4.40;3.20;;;12.00;99.90;;;;;;4991681;28;20212;-60
2023/10/30 11:14:33;;;;;;;5.97;3.97;;;12.00;99.90;;;;;;4991552;28;20230;-60
2023/10/30 11:17:03;;;;;;;5.23;3.90;;;12.00;99.90;;;;;;4989223;28;20203;-60
2023/10/30 11:19:32;;;;;;;5.43;5.03;;;12.00;99.90;;;;;;4988507;28;20505;-60
2023/10/30 11:22:00;;;;;;;4.87;4.10;;;12.10;99.90;;;;;;4992897;28;20203;-60
2023/10/30 11:24:38;;;;;;;6.33;4.50;;;12.00;99.90;;;;;;4990461;28;20630;-59
2023/10/30 11:27:37;;;;;;;6.43;5.73;;;11.90;99.90;;;;;;4989882;28;20286;-60
2023/10/30 11:30:11;;;;;;;5.13;4.67;;;11.90;99.90;;;;;;4975151;28;20633;-60
2023/10/30 11:32:53;;;;;;;5.93;5.33;;;11.90;99.90;;;;;;4975275;28;20203;-60
2023/10/30 11:35:22;;;;;;;5.87;5.37;;;11.90;99.90;;;;;;4974985;28;20267;-60
2023/10/30 11:37:50;;;;;;;6.97;6.40;;;11.80;99.90;;;;;;4975346;28;20207;-60
2023/10/30 11:40:18;;;;;;;6.87;6.27;;;11.80;99.90;;;;;;4990700;28;20234;-60
2023/10/30 11:42:46;;;;;;;6.77;5.57;;;11.80;99.90;;;;;;4993643;28;20208;-60
2023/10/30 11:45:21;;;;;;;6.47;5.63;;;11.90;99.90;;;;;;4984034;28;20210;-60
2023/10/30 11:47:57;;;;;;;5.83;5.33;;;12.00;99.90;;;;;;4975182;28;20630;-60
2023/10/30 11:50:27;;;;;;;6.00;5.60;;;12.00;99.90;;;;;;4974782;28;20639;-60
2023/10/30 11:52:55;;;;;;;7.03;6.27;;;12.00;99.90;;;;;;4975369;28;20571;-60
2023/10/30 11:55:23;;;;;;;6.63;6.13;;;12.10;99.90;;;;;;4983317;28;20234;-60
2023/10/30 11:57:51;;;;;;;5.83;5.33;;;12.10;99.90;;;;;;4989024;28;20261;-60
2023/10/30 12:00:19;;;;;;;6.83;6.30;;;12.10;99.90;;;;;;4993877;28;20667;-60
2023/10/30 12:02:46;;;;;;;5.70;5.20;;;12.20;99.90;;;;;;4994103;28;20301;-60
2023/10/30 12:05:15;;;;;;;6.27;5.53;;;12.20;99.90;;;;;;4993766;28;20245;-60
2023/10/30 12:07:42;;;;;;;5.80;5.40;;;12.20;99.90;;;;;;4994177;28;20217;-60
2023/10/30 12:10:09;;;;;;;13.30;8.70;;;12.20;99.90;;;;;;4993873;28;20261;-60
2023/10/30 12:12:37;;;;;;;9.03;7.87;;;12.20;99.90;;;;;;4984780;28;20281;-60
2023/10/30 12:15:05;;;;;;;5.80;5.23;;;12.30;99.90;;;;;;4980383;28;20270;-60
2023/10/30 12:17:31;;;;;;;6.57;5.47;;;12.40;99.90;;;;;;4993653;28;20211;-60
2023/10/30 12:19:59;;;;;;;8.83;5.90;;;12.40;99.90;;;;;;4993771;28;20229;-60
2023/10/30 12:22:28;;;;;;;5.73;5.30;;;12.40;99.90;;;;;;4993813;28;20205;-60
2023/10/30 12:24:56;;;;;;;8.97;6.47;;;12.40;99.90;;;;;;4992935;28;20230;-59
2023/10/30 12:27:25;;;;;;;6.37;5.77;;;12.50;99.90;;;;;;4989852;28;20214;-60
2023/10/30 12:29:56;;;;;;;6.57;5.97;;;12.40;99.90;;;;;;4986852;28;20249;-60
2023/10/30 12:32:26;;;;;;;6.60;6.00;;;12.40;99.90;;;;;;4984934;28;20237;-60
2023/10/30 12:34:53;;;;;;;4.93;4.60;;;12.40;99.90;;;;;;4990641;28;20711;-60
2023/10/30 12:37:23;;;;;;;6.13;5.50;;;12.50;99.90;;;;;;4993080;28;20288;-60
2023/10/30 12:40:06;;;;;;;7.90;5.33;;;12.50;99.90;;;;;;4993396;28;20196;-60
2023/10/30 12:42:34;;;;;;;6.17;5.63;;;12.60;99.90;;;;;;4985543;28;20619;-60
2023/10/30 12:45:11;;;;;;;8.93;6.70;;;12.60;99.90;;;;;;4988728;28;20245;-60
2023/10/30 12:47:38;;;;;;;6.47;5.97;;;12.50;99.90;;;;;;4994662;28;20226;-60
2023/10/30 12:50:06;;;;;;;8.17;7.37;;;12.50;99.90;;;;;;4991334;28;20196;-60
2023/10/30 12:52:33;;;;;;;7.27;6.67;;;12.50;99.90;;;;;;4992362;28;20255;-60
2023/10/30 12:55:01;;;;;;;6.60;5.70;;;12.50;99.90;;;;;;4992817;28;20226;-60